sensor_id;sensor_type;location;lat;lon;timestamp;P1;durP1;ratioP1;P2;durP2;ratioP2
21392;SDS011;10857;52.228;21.026;2024-02-26T00:01:05;27.90;;;16.23;;
21392;SDS011;10857;52.228;21.026;2024-02-26T00:03:32;29.83;;;16.63;;
21392;SDS011;10857;52.228;21.026;2024-02-26T00:06:02;26.93;;;15.90;;
21392;SDS011;10857;52.228;21.026;2024-02-26T00:08:29;29.60;;;16.77;;
21392;SDS011;10857;52.228;21.026;2024-02-26T00:10:56;26.60;;;16.03;;
21392;SDS011;10857;52.228;21.026;2024-02-26T00:13:23;28.10;;;16.50;;
21392;SDS011;10857;52.228;21.026;2024-02-26T00:15:50;30.43;;;17.00;;
21392;SDS011;10857;52.228;21.026;2024-02-26T00:18:17;29.30;;;16.60;;
21392;SDS011;10857;52.228;21.026;2024-02-26T00:20:45;31.13;;;17.20;;
21392;SDS011;10857;52.228;21.026;2024-02-26T00:23:14;30.50;;;17.57;;
21392;SDS011;10857;52.228;21.026;2024-02-26T00:25:41;34.50;;;19.13;;
21392;SDS011;10857;52.228;21.026;2024-02-26T00:28:10;31.60;;;18.60;;
21392;SDS011;10857;52.228;21.026;2024-02-26T00:30:37;34.30;;;19.80;;
21392;SDS011;10857;52.228;21.026;2024-02-26T00:33:04;36.87;;;19.33;;
21392;SDS011;10857;52.228;21.026;2024-02-26T00:35:31;33.97;;;20.03;;
21392;SDS011;10857;52.228;21.026;2024-02-26T00:37:58;36.07;;;19.93;;
21392;SDS011;10857;52.228;21.026;2024-02-26T00:40:27;35.33;;;19.50;;
21392;SDS011;10857;52.228;21.026;2024-02-26T00:42:54;34.63;;;19.33;;
21392;SDS011;10857;52.228;21.026;2024-02-26T00:45:21;33.90;;;19.37;;
21392;SDS011;10857;52.228;21.026;2024-02-26T00:47:48;33.17;;;19.83;;
21392;SDS011;10857;52.228;21.026;2024-02-26T00:50:16;35.57;;;20.20;;
21392;SDS011;10857;52.228;21.026;2024-02-26T00:52:43;35.23;;;19.57;;
21392;SDS011;10857;52.228;21.026;2024-02-26T00:55:10;33.53;;;19.50;;
21392;SDS011;10857;52.228;21.026;2024-02-26T00:57:37;36.00;;;19.63;;
21392;SDS011;10857;52.228;21.026;2024-02-26T01:00:05;34.73;;;20.17;;
21392;SDS011;10857;52.228;21.026;2024-02-26T01:02:36;41.63;;;22.77;;
21392;SDS011;10857;52.228;21.026;2024-02-26T01:05:03;39.83;;;20.17;;
21392;SDS011;10857;52.228;21.026;2024-02-26T01:07:32;34.60;;;19.93;;
21392;SDS011;10857;52.228;21.026;2024-02-26T01:10:03;33.90;;;20.27;;
21392;SDS011;10857;52.228;21.026;2024-02-26T01:12:30;38.63;;;21.10;;
21392;SDS011;10857;52.228;21.026;2024-02-26T01:14:57;36.13;;;20.63;;
21392;SDS011;10857;52.228;21.026;2024-02-26T01:17:25;35.63;;;20.97;;
21392;SDS011;10857;52.228;21.026;2024-02-26T01:19:52;34.60;;;20.67;;
21392;SDS011;10857;52.228;21.026;2024-02-26T01:22:20;35.40;;;20.67;;
21392;SDS011;10857;52.228;21.026;2024-02-26T01:24:47;38.53;;;20.83;;
21392;SDS011;10857;52.228;21.026;2024-02-26T01:27:14;40.03;;;21.20;;
21392;SDS011;10857;52.228;21.026;2024-02-26T01:29:42;36.93;;;20.53;;
21392;SDS011;10857;52.228;21.026;2024-02-26T01:32:09;36.53;;;20.30;;
21392;SDS011;10857;52.228;21.026;2024-02-26T01:34:36;37.77;;;20.67;;
21392;SDS011;10857;52.228;21.026;2024-02-26T01:37:04;38.40;;;20.97;;
21392;SDS011;10857;52.228;21.026;2024-02-26T01:39:30;34.70;;;19.60;;
21392;SDS011;10857;52.228;21.026;2024-02-26T01:41:57;35.73;;;19.77;;
21392;SDS011;10857;52.228;21.026;2024-02-26T01:44:26;35.07;;;20.13;;
21392;SDS011;10857;52.228;21.026;2024-02-26T01:46:53;36.10;;;20.27;;
21392;SDS011;10857;52.228;21.026;2024-02-26T01:49:20;35.90;;;20.33;;
21392;SDS011;10857;52.228;21.026;2024-02-26T01:51:48;33.17;;;19.67;;
21392;SDS011;10857;52.228;21.026;2024-02-26T01:54:15;34.60;;;19.50;;
21392;SDS011;10857;52.228;21.026;2024-02-26T01:56:43;38.67;;;19.63;;
21392;SDS011;10857;52.228;21.026;2024-02-26T01:59:10;36.40;;;19.70;;
21392;SDS011;10857;52.228;21.026;2024-02-26T02:01:37;38.63;;;19.63;;
21392;SDS011;10857;52.228;21.026;2024-02-26T02:04:09;32.13;;;18.17;;
21392;SDS011;10857;52.228;21.026;2024-02-26T02:06:36;32.87;;;18.90;;
21392;SDS011;10857;52.228;21.026;2024-02-26T02:09:05;32.70;;;19.50;;
21392;SDS011;10857;52.228;21.026;2024-02-26T02:11:34;34.57;;;18.53;;
21392;SDS011;10857;52.228;21.026;2024-02-26T02:14:01;31.90;;;18.00;;
21392;SDS011;10857;52.228;21.026;2024-02-26T02:16:28;32.83;;;18.80;;
21392;SDS011;10857;52.228;21.026;2024-02-26T02:18:55;32.77;;;18.20;;
21392;SDS011;10857;52.228;21.026;2024-02-26T02:21:23;33.33;;;18.47;;
21392;SDS011;10857;52.228;21.026;2024-02-26T02:23:50;32.10;;;17.87;;
21392;SDS011;10857;52.228;21.026;2024-02-26T02:26:17;33.00;;;18.00;;
21392;SDS011;10857;52.228;21.026;2024-02-26T02:28:45;35.30;;;18.63;;
21392;SDS011;10857;52.228;21.026;2024-02-26T02:31:13;32.67;;;19.60;;
21392;SDS011;10857;52.228;21.026;2024-02-26T02:33:41;34.00;;;19.37;;
21392;SDS011;10857;52.228;21.026;2024-02-26T02:36:09;32.00;;;19.50;;
21392;SDS011;10857;52.228;21.026;2024-02-26T02:38:37;34.23;;;19.90;;
21392;SDS011;10857;52.228;21.026;2024-02-26T02:41:04;33.63;;;19.57;;
21392;SDS011;10857;52.228;21.026;2024-02-26T02:43:31;33.47;;;19.53;;
21392;SDS011;10857;52.228;21.026;2024-02-26T02:45:59;33.73;;;19.87;;
21392;SDS011;10857;52.228;21.026;2024-02-26T02:48:26;36.83;;;20.63;;
21392;SDS011;10857;52.228;21.026;2024-02-26T02:50:53;34.50;;;20.23;;
21392;SDS011;10857;52.228;21.026;2024-02-26T02:53:20;34.57;;;20.00;;
21392;SDS011;10857;52.228;21.026;2024-02-26T02:55:47;36.70;;;20.67;;
21392;SDS011;10857;52.228;21.026;2024-02-26T02:58:14;35.87;;;20.27;;
21392;SDS011;10857;52.228;21.026;2024-02-26T03:00:41;38.60;;;21.00;;
21392;SDS011;10857;52.228;21.026;2024-02-26T03:03:09;37.43;;;21.27;;
21392;SDS011;10857;52.228;21.026;2024-02-26T03:05:36;36.07;;;21.23;;
21392;SDS011;10857;52.228;21.026;2024-02-26T03:08:03;37.97;;;21.43;;
21392;SDS011;10857;52.228;21.026;2024-02-26T03:10:30;35.47;;;21.17;;
21392;SDS011;10857;52.228;21.026;2024-02-26T03:12:57;35.23;;;21.00;;
21392;SDS011;10857;52.228;21.026;2024-02-26T03:15:24;38.60;;;20.60;;
21392;SDS011;10857;52.228;21.026;2024-02-26T03:17:51;34.97;;;21.03;;
21392;SDS011;10857;52.228;21.026;2024-02-26T03:20:19;36.00;;;21.50;;
21392;SDS011;10857;52.228;21.026;2024-02-26T03:22:46;37.17;;;21.43;;
21392;SDS011;10857;52.228;21.026;2024-02-26T03:25:13;43.30;;;21.50;;
21392;SDS011;10857;52.228;21.026;2024-02-26T03:27:40;38.73;;;21.73;;
21392;SDS011;10857;52.228;21.026;2024-02-26T03:30:07;41.93;;;21.97;;
21392;SDS011;10857;52.228;21.026;2024-02-26T03:32:35;36.47;;;20.50;;
21392;SDS011;10857;52.228;21.026;2024-02-26T03:35:02;37.57;;;21.27;;
21392;SDS011;10857;52.228;21.026;2024-02-26T03:37:30;36.07;;;21.23;;
21392;SDS011;10857;52.228;21.026;2024-02-26T03:39:57;40.47;;;21.67;;
21392;SDS011;10857;52.228;21.026;2024-02-26T03:42:24;37.80;;;21.57;;
21392;SDS011;10857;52.228;21.026;2024-02-26T03:44:51;35.87;;;21.80;;
21392;SDS011;10857;52.228;21.026;2024-02-26T03:47:18;38.77;;;22.50;;
21392;SDS011;10857;52.228;21.026;2024-02-26T03:49:45;42.70;;;23.27;;
21392;SDS011;10857;52.228;21.026;2024-02-26T03:52:12;43.83;;;22.50;;
21392;SDS011;10857;52.228;21.026;2024-02-26T03:54:39;42.37;;;22.93;;
21392;SDS011;10857;52.228;21.026;2024-02-26T03:57:06;40.77;;;22.60;;
21392;SDS011;10857;52.228;21.026;2024-02-26T03:59:33;40.00;;;23.13;;
21392;SDS011;10857;52.228;21.026;2024-02-26T04:02:01;39.40;;;22.97;;
21392;SDS011;10857;52.228;21.026;2024-02-26T04:04:28;43.27;;;23.40;;
21392;SDS011;10857;52.228;21.026;2024-02-26T04:06:55;42.07;;;23.43;;
21392;SDS011;10857;52.228;21.026;2024-02-26T04:09:22;41.13;;;23.63;;
21392;SDS011;10857;52.228;21.026;2024-02-26T04:11:50;40.37;;;23.23;;
21392;SDS011;10857;52.228;21.026;2024-02-26T04:14:17;39.27;;;23.00;;
21392;SDS011;10857;52.228;21.026;2024-02-26T04:16:44;42.10;;;23.10;;
21392;SDS011;10857;52.228;21.026;2024-02-26T04:19:11;40.40;;;23.10;;
21392;SDS011;10857;52.228;21.026;2024-02-26T04:21:40;38.93;;;22.33;;
21392;SDS011;10857;52.228;21.026;2024-02-26T04:24:08;40.67;;;22.77;;
21392;SDS011;10857;52.228;21.026;2024-02-26T04:26:35;41.13;;;22.77;;
21392;SDS011;10857;52.228;21.026;2024-02-26T04:29:02;44.30;;;24.17;;
21392;SDS011;10857;52.228;21.026;2024-02-26T04:31:29;42.43;;;23.57;;
21392;SDS011;10857;52.228;21.026;2024-02-26T04:33:59;40.53;;;23.87;;
21392;SDS011;10857;52.228;21.026;2024-02-26T04:36:26;38.67;;;22.47;;
21392;SDS011;10857;52.228;21.026;2024-02-26T04:38:53;40.97;;;23.40;;
21392;SDS011;10857;52.228;21.026;2024-02-26T04:41:23;41.60;;;23.63;;
21392;SDS011;10857;52.228;21.026;2024-02-26T04:43:50;42.50;;;24.23;;
21392;SDS011;10857;52.228;21.026;2024-02-26T04:46:17;42.23;;;23.27;;
21392;SDS011;10857;52.228;21.026;2024-02-26T04:48:45;42.90;;;24.40;;
21392;SDS011;10857;52.228;21.026;2024-02-26T04:51:13;41.33;;;23.67;;
21392;SDS011;10857;52.228;21.026;2024-02-26T04:53:40;44.60;;;24.80;;
21392;SDS011;10857;52.228;21.026;2024-02-26T04:56:07;44.27;;;24.17;;
21392;SDS011;10857;52.228;21.026;2024-02-26T04:58:34;41.70;;;24.27;;
21392;SDS011;10857;52.228;21.026;2024-02-26T05:01:01;43.20;;;24.87;;
21392;SDS011;10857;52.228;21.026;2024-02-26T05:03:29;42.47;;;23.77;;
21392;SDS011;10857;52.228;21.026;2024-02-26T05:06:00;45.53;;;25.10;;
21392;SDS011;10857;52.228;21.026;2024-02-26T05:08:27;43.40;;;24.30;;
21392;SDS011;10857;52.228;21.026;2024-02-26T05:10:57;43.07;;;23.97;;
21392;SDS011;10857;52.228;21.026;2024-02-26T05:13:24;40.47;;;23.27;;
21392;SDS011;10857;52.228;21.026;2024-02-26T05:15:51;44.20;;;24.37;;
21392;SDS011;10857;52.228;21.026;2024-02-26T05:18:18;43.17;;;24.80;;
21392;SDS011;10857;52.228;21.026;2024-02-26T05:20:46;43.47;;;24.77;;
21392;SDS011;10857;52.228;21.026;2024-02-26T05:23:13;45.10;;;24.60;;
21392;SDS011;10857;52.228;21.026;2024-02-26T05:25:40;44.40;;;24.60;;
21392;SDS011;10857;52.228;21.026;2024-02-26T05:28:07;49.83;;;25.63;;
21392;SDS011;10857;52.228;21.026;2024-02-26T05:30:35;50.57;;;25.57;;
21392;SDS011;10857;52.228;21.026;2024-02-26T05:33:02;50.40;;;25.00;;
21392;SDS011;10857;52.228;21.026;2024-02-26T05:35:29;49.93;;;24.67;;
21392;SDS011;10857;52.228;21.026;2024-02-26T05:37:56;49.17;;;25.03;;
21392;SDS011;10857;52.228;21.026;2024-02-26T05:40:23;47.47;;;24.20;;
21392;SDS011;10857;52.228;21.026;2024-02-26T05:42:50;47.17;;;24.30;;
21392;SDS011;10857;52.228;21.026;2024-02-26T05:45:18;45.73;;;24.00;;
21392;SDS011;10857;52.228;21.026;2024-02-26T05:47:45;44.33;;;22.50;;
21392;SDS011;10857;52.228;21.026;2024-02-26T05:50:12;44.13;;;22.90;;
21392;SDS011;10857;52.228;21.026;2024-02-26T05:52:41;42.67;;;23.03;;
21392;SDS011;10857;52.228;21.026;2024-02-26T05:55:08;44.83;;;23.67;;
21392;SDS011;10857;52.228;21.026;2024-02-26T05:57:35;44.60;;;23.50;;
21392;SDS011;10857;52.228;21.026;2024-02-26T06:00:03;42.37;;;23.33;;
21392;SDS011;10857;52.228;21.026;2024-02-26T06:02:39;43.20;;;22.73;;
21392;SDS011;10857;52.228;21.026;2024-02-26T06:05:06;44.70;;;22.97;;
21392;SDS011;10857;52.228;21.026;2024-02-26T06:07:35;42.23;;;23.37;;
21392;SDS011;10857;52.228;21.026;2024-02-26T06:10:02;47.17;;;25.53;;
21392;SDS011;10857;52.228;21.026;2024-02-26T06:12:31;43.07;;;23.03;;
21392;SDS011;10857;52.228;21.026;2024-02-26T06:14:59;43.13;;;22.73;;
21392;SDS011;10857;52.228;21.026;2024-02-26T06:17:28;42.70;;;23.00;;
21392;SDS011;10857;52.228;21.026;2024-02-26T06:19:55;43.07;;;23.00;;
21392;SDS011;10857;52.228;21.026;2024-02-26T06:22:22;57.53;;;28.83;;
21392;SDS011;10857;52.228;21.026;2024-02-26T06:24:49;46.23;;;23.87;;
21392;SDS011;10857;52.228;21.026;2024-02-26T06:27:16;45.83;;;24.93;;
21392;SDS011;10857;52.228;21.026;2024-02-26T06:29:43;47.10;;;23.97;;
21392;SDS011;10857;52.228;21.026;2024-02-26T06:32:10;47.67;;;23.67;;
21392;SDS011;10857;52.228;21.026;2024-02-26T06:34:37;47.50;;;24.17;;
21392;SDS011;10857;52.228;21.026;2024-02-26T06:37:05;42.60;;;24.13;;
21392;SDS011;10857;52.228;21.026;2024-02-26T06:39:32;47.83;;;23.73;;
21392;SDS011;10857;52.228;21.026;2024-02-26T06:41:59;40.90;;;23.67;;
21392;SDS011;10857;52.228;21.026;2024-02-26T06:44:28;44.03;;;24.03;;
21392;SDS011;10857;52.228;21.026;2024-02-26T06:47:01;43.53;;;23.40;;
21392;SDS011;10857;52.228;21.026;2024-02-26T06:49:28;45.40;;;24.03;;
21392;SDS011;10857;52.228;21.026;2024-02-26T06:51:56;47.57;;;23.07;;
21392;SDS011;10857;52.228;21.026;2024-02-26T06:54:23;42.40;;;23.43;;
21392;SDS011;10857;52.228;21.026;2024-02-26T06:56:50;41.13;;;22.13;;
21392;SDS011;10857;52.228;21.026;2024-02-26T06:59:17;43.77;;;23.57;;
21392;SDS011;10857;52.228;21.026;2024-02-26T07:01:46;46.27;;;23.60;;
21392;SDS011;10857;52.228;21.026;2024-02-26T07:04:13;42.27;;;23.87;;
21392;SDS011;10857;52.228;21.026;2024-02-26T07:06:40;42.83;;;24.10;;
21392;SDS011;10857;52.228;21.026;2024-02-26T07:09:09;43.00;;;22.53;;
21392;SDS011;10857;52.228;21.026;2024-02-26T07:11:38;43.40;;;23.57;;
21392;SDS011;10857;52.228;21.026;2024-02-26T07:14:09;40.23;;;23.03;;
21392;SDS011;10857;52.228;21.026;2024-02-26T07:16:37;45.97;;;25.97;;
21392;SDS011;10857;52.228;21.026;2024-02-26T07:19:04;38.30;;;22.87;;
21392;SDS011;10857;52.228;21.026;2024-02-26T07:21:31;38.93;;;22.73;;
21392;SDS011;10857;52.228;21.026;2024-02-26T07:23:59;37.53;;;21.83;;
21392;SDS011;10857;52.228;21.026;2024-02-26T07:26:26;42.30;;;23.23;;
21392;SDS011;10857;52.228;21.026;2024-02-26T07:28:53;39.77;;;22.13;;
21392;SDS011;10857;52.228;21.026;2024-02-26T07:31:20;36.17;;;21.87;;
21392;SDS011;10857;52.228;21.026;2024-02-26T07:33:47;35.77;;;22.10;;
21392;SDS011;10857;52.228;21.026;2024-02-26T07:36:14;37.53;;;22.23;;
21392;SDS011;10857;52.228;21.026;2024-02-26T07:38:42;40.73;;;24.27;;
21392;SDS011;10857;52.228;21.026;2024-02-26T07:41:11;43.23;;;26.53;;
21392;SDS011;10857;52.228;21.026;2024-02-26T07:43:38;34.43;;;22.10;;
21392;SDS011;10857;52.228;21.026;2024-02-26T07:46:05;37.20;;;21.33;;
21392;SDS011;10857;52.228;21.026;2024-02-26T07:48:33;37.37;;;22.30;;
21392;SDS011;10857;52.228;21.026;2024-02-26T07:51:00;35.43;;;22.23;;
21392;SDS011;10857;52.228;21.026;2024-02-26T07:53:30;36.87;;;21.63;;
21392;SDS011;10857;52.228;21.026;2024-02-26T07:55:57;38.33;;;21.30;;
21392;SDS011;10857;52.228;21.026;2024-02-26T07:58:24;34.60;;;20.83;;
21392;SDS011;10857;52.228;21.026;2024-02-26T08:00:51;35.47;;;22.40;;
21392;SDS011;10857;52.228;21.026;2024-02-26T08:03:18;37.23;;;22.10;;
21392;SDS011;10857;52.228;21.026;2024-02-26T08:05:45;36.70;;;21.80;;
21392;SDS011;10857;52.228;21.026;2024-02-26T08:08:13;33.10;;;21.30;;
21392;SDS011;10857;52.228;21.026;2024-02-26T08:10:40;33.43;;;21.43;;
21392;SDS011;10857;52.228;21.026;2024-02-26T08:13:07;35.75;;;22.35;;
21392;SDS011;10857;52.228;21.026;2024-02-26T08:15:37;35.70;;;21.73;;
21392;SDS011;10857;52.228;21.026;2024-02-26T08:18:04;33.13;;;21.83;;
21392;SDS011;10857;52.228;21.026;2024-02-26T08:20:32;32.13;;;21.00;;
21392;SDS011;10857;52.228;21.026;2024-02-26T08:22:59;33.60;;;21.77;;
21392;SDS011;10857;52.228;21.026;2024-02-26T08:25:26;36.30;;;23.25;;
21392;SDS011;10857;52.228;21.026;2024-02-26T08:27:53;34.20;;;21.75;;
21392;SDS011;10857;52.228;21.026;2024-02-26T08:30:20;33.15;;;22.33;;
21392;SDS011;10857;52.228;21.026;2024-02-26T08:32:47;34.97;;;21.70;;
21392;SDS011;10857;52.228;21.026;2024-02-26T08:35:18;32.50;;;21.35;;
21392;SDS011;10857;52.228;21.026;2024-02-26T08:37:46;33.22;;;21.05;;
21392;SDS011;10857;52.228;21.026;2024-02-26T08:40:14;34.10;;;22.17;;
21392;SDS011;10857;52.228;21.026;2024-02-26T08:42:41;37.15;;;21.17;;
21392;SDS011;10857;52.228;21.026;2024-02-26T08:45:09;33.63;;;20.42;;
21392;SDS011;10857;52.228;21.026;2024-02-26T08:47:36;33.42;;;21.83;;
21392;SDS011;10857;52.228;21.026;2024-02-26T08:50:04;34.47;;;21.20;;
21392;SDS011;10857;52.228;21.026;2024-02-26T08:52:31;33.05;;;21.15;;
21392;SDS011;10857;52.228;21.026;2024-02-26T08:54:59;34.50;;;21.40;;
21392;SDS011;10857;52.228;21.026;2024-02-26T08:57:26;32.42;;;21.30;;
21392;SDS011;10857;52.228;21.026;2024-02-26T08:59:54;33.45;;;21.50;;
21392;SDS011;10857;52.228;21.026;2024-02-26T09:02:21;31.00;;;21.52;;
21392;SDS011;10857;52.228;21.026;2024-02-26T09:04:48;32.20;;;21.15;;
21392;SDS011;10857;52.228;21.026;2024-02-26T09:07:17;30.75;;;20.13;;
21392;SDS011;10857;52.228;21.026;2024-02-26T09:09:44;30.17;;;21.33;;
21392;SDS011;10857;52.228;21.026;2024-02-26T09:12:12;34.58;;;21.70;;
21392;SDS011;10857;52.228;21.026;2024-02-26T09:14:39;32.35;;;20.65;;
21392;SDS011;10857;52.228;21.026;2024-02-26T09:17:07;28.80;;;20.52;;
21392;SDS011;10857;52.228;21.026;2024-02-26T09:19:34;31.55;;;21.45;;
21392;SDS011;10857;52.228;21.026;2024-02-26T09:22:01;38.15;;;20.80;;
21392;SDS011;10857;52.228;21.026;2024-02-26T09:24:28;37.15;;;22.23;;
21392;SDS011;10857;52.228;21.026;2024-02-26T09:26:56;33.42;;;21.77;;
21392;SDS011;10857;52.228;21.026;2024-02-26T09:29:23;32.10;;;21.58;;
21392;SDS011;10857;52.228;21.026;2024-02-26T09:31:50;31.23;;;20.55;;
21392;SDS011;10857;52.228;21.026;2024-02-26T09:34:17;34.00;;;20.20;;
21392;SDS011;10857;52.228;21.026;2024-02-26T09:36:44;34.22;;;20.27;;
21392;SDS011;10857;52.228;21.026;2024-02-26T09:39:11;27.42;;;19.80;;
21392;SDS011;10857;52.228;21.026;2024-02-26T09:41:44;30.73;;;20.27;;
21392;SDS011;10857;52.228;21.026;2024-02-26T09:44:11;32.83;;;20.95;;
21392;SDS011;10857;52.228;21.026;2024-02-26T09:46:44;32.50;;;19.88;;
21392;SDS011;10857;52.228;21.026;2024-02-26T09:49:11;30.33;;;20.35;;
21392;SDS011;10857;52.228;21.026;2024-02-26T09:51:40;31.83;;;22.35;;
21392;SDS011;10857;52.228;21.026;2024-02-26T09:54:11;30.73;;;21.40;;
21392;SDS011;10857;52.228;21.026;2024-02-26T09:56:40;29.92;;;20.65;;
21392;SDS011;10857;52.228;21.026;2024-02-26T09:59:21;29.05;;;20.10;;
21392;SDS011;10857;52.228;21.026;2024-02-26T10:01:49;30.02;;;20.27;;
21392;SDS011;10857;52.228;21.026;2024-02-26T10:04:17;29.40;;;20.33;;
21392;SDS011;10857;52.228;21.026;2024-02-26T10:06:45;29.95;;;20.35;;
21392;SDS011;10857;52.228;21.026;2024-02-26T10:09:13;29.75;;;19.00;;
21392;SDS011;10857;52.228;21.026;2024-02-26T10:11:42;31.15;;;19.33;;
21392;SDS011;10857;52.228;21.026;2024-02-26T10:14:10;27.75;;;19.73;;
21392;SDS011;10857;52.228;21.026;2024-02-26T10:16:38;28.02;;;18.95;;
21392;SDS011;10857;52.228;21.026;2024-02-26T10:19:06;28.38;;;19.17;;
21392;SDS011;10857;52.228;21.026;2024-02-26T10:21:33;29.08;;;20.23;;
21392;SDS011;10857;52.228;21.026;2024-02-26T10:24:00;30.83;;;20.40;;
21392;SDS011;10857;52.228;21.026;2024-02-26T10:26:27;29.95;;;19.98;;
21392;SDS011;10857;52.228;21.026;2024-02-26T10:28:54;27.30;;;19.25;;
21392;SDS011;10857;52.228;21.026;2024-02-26T10:31:26;28.15;;;19.45;;
21392;SDS011;10857;52.228;21.026;2024-02-26T10:33:55;31.60;;;20.15;;
21392;SDS011;10857;52.228;21.026;2024-02-26T10:36:25;30.07;;;19.43;;
21392;SDS011;10857;52.228;21.026;2024-02-26T10:39:10;30.13;;;19.63;;
21392;SDS011;10857;52.228;21.026;2024-02-26T10:41:42;25.67;;;19.17;;
21392;SDS011;10857;52.228;21.026;2024-02-26T10:44:10;27.40;;;19.10;;
21392;SDS011;10857;52.228;21.026;2024-02-26T10:46:43;27.13;;;18.98;;
21392;SDS011;10857;52.228;21.026;2024-02-26T10:49:14;26.08;;;18.58;;
21392;SDS011;10857;52.228;21.026;2024-02-26T10:51:51;24.80;;;17.83;;
21392;SDS011;10857;52.228;21.026;2024-02-26T10:54:22;20.38;;;15.07;;
21392;SDS011;10857;52.228;21.026;2024-02-26T10:56:53;18.83;;;14.25;;
21392;SDS011;10857;52.228;21.026;2024-02-26T10:59:22;22.67;;;14.52;;
21392;SDS011;10857;52.228;21.026;2024-02-26T11:01:50;21.23;;;15.38;;
21392;SDS011;10857;52.228;21.026;2024-02-26T11:04:17;19.45;;;13.82;;
21392;SDS011;10857;52.228;21.026;2024-02-26T11:06:45;20.40;;;14.45;;
21392;SDS011;10857;52.228;21.026;2024-02-26T11:09:14;20.13;;;14.75;;
21392;SDS011;10857;52.228;21.026;2024-02-26T11:11:42;17.00;;;13.48;;
21392;SDS011;10857;52.228;21.026;2024-02-26T11:14:11;18.13;;;13.70;;
21392;SDS011;10857;52.228;21.026;2024-02-26T11:16:39;17.77;;;12.80;;
21392;SDS011;10857;52.228;21.026;2024-02-26T11:19:09;20.30;;;13.23;;
21392;SDS011;10857;52.228;21.026;2024-02-26T11:21:39;17.67;;;13.52;;
21392;SDS011;10857;52.228;21.026;2024-02-26T11:24:10;18.08;;;13.50;;
21392;SDS011;10857;52.228;21.026;2024-02-26T11:26:50;15.57;;;12.02;;
21392;SDS011;10857;52.228;21.026;2024-02-26T11:29:38;18.10;;;13.27;;
21392;SDS011;10857;52.228;21.026;2024-02-26T11:32:10;16.67;;;12.23;;
21392;SDS011;10857;52.228;21.026;2024-02-26T11:34:37;19.88;;;11.93;;
21392;SDS011;10857;52.228;21.026;2024-02-26T11:37:09;15.77;;;12.10;;
21392;SDS011;10857;52.228;21.026;2024-02-26T11:39:37;16.88;;;12.05;;
21392;SDS011;10857;52.228;21.026;2024-02-26T11:42:07;13.80;;;10.02;;
21392;SDS011;10857;52.228;21.026;2024-02-26T11:44:35;14.90;;;11.13;;
21392;SDS011;10857;52.228;21.026;2024-02-26T11:47:12;14.18;;;10.45;;
21392;SDS011;10857;52.228;21.026;2024-02-26T11:49:40;14.07;;;11.13;;
21392;SDS011;10857;52.228;21.026;2024-02-26T11:52:08;14.35;;;10.98;;
21392;SDS011;10857;52.228;21.026;2024-02-26T11:54:46;15.25;;;10.50;;
21392;SDS011;10857;52.228;21.026;2024-02-26T11:57:31;15.43;;;10.80;;
21392;SDS011;10857;52.228;21.026;2024-02-26T12:00:13;13.10;;;10.00;;
21392;SDS011;10857;52.228;21.026;2024-02-26T12:02:49;16.45;;;10.02;;
21392;SDS011;10857;52.228;21.026;2024-02-26T12:05:32;12.88;;;9.80;;
21392;SDS011;10857;52.228;21.026;2024-02-26T12:08:01;12.45;;;9.07;;
21392;SDS011;10857;52.228;21.026;2024-02-26T12:10:38;11.90;;;8.63;;
21392;SDS011;10857;52.228;21.026;2024-02-26T12:13:16;14.50;;;10.00;;
21392;SDS011;10857;52.228;21.026;2024-02-26T12:18:24;15.25;;;9.95;;
21392;SDS011;10857;52.228;21.026;2024-02-26T12:20:58;17.60;;;10.00;;
21392;SDS011;10857;52.228;21.026;2024-02-26T12:23:27;15.43;;;9.60;;
21392;SDS011;10857;52.228;21.026;2024-02-26T12:26:01;11.85;;;9.10;;
21392;SDS011;10857;52.228;21.026;2024-02-26T12:28:33;11.90;;;9.00;;
21392;SDS011;10857;52.228;21.026;2024-02-26T12:31:00;13.25;;;8.57;;
21392;SDS011;10857;52.228;21.026;2024-02-26T12:33:27;12.82;;;8.10;;
21392;SDS011;10857;52.228;21.026;2024-02-26T12:35:55;11.23;;;7.97;;
21392;SDS011;10857;52.228;21.026;2024-02-26T12:38:23;12.30;;;8.18;;
21392;SDS011;10857;52.228;21.026;2024-02-26T12:40:50;11.75;;;8.38;;
21392;SDS011;10857;52.228;21.026;2024-02-26T12:43:18;13.02;;;8.07;;
21392;SDS011;10857;52.228;21.026;2024-02-26T12:45:45;10.13;;;7.80;;
21392;SDS011;10857;52.228;21.026;2024-02-26T12:48:14;13.20;;;7.88;;
21392;SDS011;10857;52.228;21.026;2024-02-26T12:50:47;12.60;;;8.10;;
21392;SDS011;10857;52.228;21.026;2024-02-26T12:53:15;12.80;;;7.88;;
21392;SDS011;10857;52.228;21.026;2024-02-26T12:55:42;9.15;;;7.00;;
21392;SDS011;10857;52.228;21.026;2024-02-26T12:58:10;9.32;;;6.47;;
21392;SDS011;10857;52.228;21.026;2024-02-26T13:00:38;10.35;;;6.40;;
21392;SDS011;10857;52.228;21.026;2024-02-26T13:03:07;8.88;;;6.53;;
21392;SDS011;10857;52.228;21.026;2024-02-26T13:05:35;11.95;;;5.80;;
21392;SDS011;10857;52.228;21.026;2024-02-26T13:08:02;10.02;;;5.70;;
21392;SDS011;10857;52.228;21.026;2024-02-26T13:10:34;8.45;;;5.55;;
21392;SDS011;10857;52.228;21.026;2024-02-26T13:13:01;9.65;;;5.50;;
21392;SDS011;10857;52.228;21.026;2024-02-26T13:15:29;8.65;;;5.47;;
21392;SDS011;10857;52.228;21.026;2024-02-26T13:17:56;12.25;;;6.15;;
21392;SDS011;10857;52.228;21.026;2024-02-26T13:20:28;12.20;;;5.38;;
21392;SDS011;10857;52.228;21.026;2024-02-26T13:23:01;8.55;;;5.20;;
21392;SDS011;10857;52.228;21.026;2024-02-26T13:25:29;6.63;;;5.00;;
21392;SDS011;10857;52.228;21.026;2024-02-26T13:28:06;8.88;;;5.00;;
21392;SDS011;10857;52.228;21.026;2024-02-26T13:30:35;7.50;;;5.00;;
21392;SDS011;10857;52.228;21.026;2024-02-26T13:33:12;9.48;;;5.00;;
21392;SDS011;10857;52.228;21.026;2024-02-26T13:35:40;9.30;;;5.00;;
21392;SDS011;10857;52.228;21.026;2024-02-26T13:38:07;9.15;;;4.70;;
21392;SDS011;10857;52.228;21.026;2024-02-26T13:40:34;7.63;;;4.70;;
21392;SDS011;10857;52.228;21.026;2024-02-26T13:43:01;6.68;;;4.30;;
21392;SDS011;10857;52.228;21.026;2024-02-26T13:45:29;23.63;;;5.53;;
21392;SDS011;10857;52.228;21.026;2024-02-26T13:48:04;8.30;;;4.13;;
21392;SDS011;10857;52.228;21.026;2024-02-26T13:50:33;9.75;;;6.00;;
21392;SDS011;10857;52.228;21.026;2024-02-26T13:53:00;15.60;;;4.93;;
21392;SDS011;10857;52.228;21.026;2024-02-26T13:55:27;9.25;;;4.57;;
21392;SDS011;10857;52.228;21.026;2024-02-26T13:57:56;8.10;;;4.43;;
21392;SDS011;10857;52.228;21.026;2024-02-26T14:00:24;11.00;;;4.57;;
21392;SDS011;10857;52.228;21.026;2024-02-26T14:02:52;13.95;;;4.97;;
21392;SDS011;10857;52.228;21.026;2024-02-26T14:05:19;8.85;;;4.70;;
21392;SDS011;10857;52.228;21.026;2024-02-26T14:07:46;7.78;;;4.72;;
21392;SDS011;10857;52.228;21.026;2024-02-26T14:10:18;20.65;;;5.28;;
21392;SDS011;10857;52.228;21.026;2024-02-26T14:12:45;12.85;;;4.68;;
21392;SDS011;10857;52.228;21.026;2024-02-26T14:15:13;9.32;;;5.03;;
21392;SDS011;10857;52.228;21.026;2024-02-26T14:17:40;9.68;;;4.90;;
21392;SDS011;10857;52.228;21.026;2024-02-26T14:20:07;6.35;;;4.47;;